createdAt,value
2023-03-12T00:13:04.663Z,4.10
2023-03-12T00:14:12.610Z,4.53
2023-03-12T00:15:16.443Z,4.90
2023-03-12T00:16:22.840Z,4.68
2023-03-12T00:17:26.493Z,3.63
2023-03-12T00:18:30.508Z,3.72
2023-03-12T00:19:38.421Z,4.38
2023-03-12T00:20:42.134Z,4.47
2023-03-12T00:21:47.355Z,4.28
2023-03-12T00:22:51.186Z,5.85
2023-03-12T00:23:59.547Z,3.47
2023-03-12T00:25:06.632Z,4.50
2023-03-12T00:26:15.070Z,3.50
2023-03-12T00:27:20.165Z,4.03
2023-03-12T00:28:23.951Z,4.32
2023-03-12T00:29:29.720Z,3.90
2023-03-12T00:30:33.492Z,4.15
2023-03-12T00:31:38.212Z,4.28
2023-03-12T00:32:46.356Z,4.68
2023-03-12T00:33:51.928Z,3.67
2023-03-12T00:34:56.654Z,4.70
2023-03-12T00:36:05.576Z,3.63
2023-03-12T00:37:09.537Z,4.20
2023-03-12T00:38:14.383Z,3.83
2023-03-12T00:39:18.459Z,3.22
2023-03-12T00:40:22.132Z,2.97
2023-03-12T00:41:28.544Z,4.47
2023-03-12T00:42:33.630Z,3.17
2023-03-12T00:43:37.771Z,3.20
2023-03-12T00:44:41.873Z,3.67
2023-03-12T00:45:46.072Z,3.40
2023-03-12T00:46:50.099Z,3.17
2023-03-12T00:47:57.903Z,3.75
2023-03-12T00:49:02.942Z,3.35
2023-03-12T00:50:11.579Z,3.45
2023-03-12T00:51:15.474Z,3.28
2023-03-12T00:52:23.997Z,3.22
2023-03-12T00:53:27.859Z,3.45
2023-03-12T00:54:32.656Z,3.22
2023-03-12T00:55:38.088Z,3.15
2023-03-12T00:56:46.910Z,3.22
2023-03-12T00:57:50.928Z,4.05
2023-03-12T00:58:58.419Z,2.95
2023-03-12T01:00:06.282Z,3.88
2023-03-12T01:01:14.027Z,3.78
2023-03-12T01:02:23.277Z,2.80
2023-03-12T01:03:27.156Z,5.05
2023-03-12T01:04:34.224Z,3.13
2023-03-12T01:05:40.888Z,3.28
2023-03-12T01:06:47.731Z,3.67
2023-03-12T01:07:51.383Z,3.50
2023-03-12T01:09:05.376Z,2.15
2023-03-12T01:10:12.349Z,3.95
2023-03-12T01:11:21.549Z,3.20
2023-03-12T01:12:31.693Z,2.95
2023-03-12T01:13:35.634Z,3.20
2023-03-12T01:14:42.033Z,3.63
2023-03-12T01:15:48.784Z,3.15
2023-03-12T01:16:54.411Z,3.03
2023-03-12T01:17:58.063Z,3.47
2023-03-12T01:19:04.068Z,2.92
2023-03-12T01:20:11.467Z,3.38
2023-03-12T01:21:15.264Z,3.38
2023-03-12T01:22:19.443Z,4.18
2023-03-12T01:23:23.374Z,3.72
2023-03-12T01:24:27.264Z,3.67
2023-03-12T01:25:31.057Z,3.20
2023-03-12T01:26:35.066Z,3.05
2023-03-12T01:27:41.720Z,3.45
2023-03-12T01:28:45.879Z,2.55
2023-03-12T01:29:52.160Z,3.15
2023-03-12T01:30:56.082Z,3.08
2023-03-12T01:32:01.138Z,4.07
2023-03-12T01:33:05.357Z,2.95
2023-03-12T01:34:12.743Z,3.25
2023-03-12T01:35:18.308Z,3.47
2023-03-12T01:36:29.732Z,4.63
2023-03-12T01:37:36.642Z,3.85
2023-03-12T01:38:42.488Z,3.60
2023-03-12T01:39:46.238Z,2.92
2023-03-12T01:40:50.326Z,3.83
2023-03-12T01:41:58.174Z,3.63
2023-03-12T01:43:37.108Z,4.03
2023-03-12T01:45:03.576Z,4.25
2023-03-12T01:46:43.290Z,4.65
2023-03-12T01:47:50.127Z,4.65
2023-03-12T01:49:26.896Z,3.45
2023-03-12T01:50:30.810Z,4.10
2023-03-12T01:51:52.702Z,4.55
2023-03-12T01:53:00.240Z,4.97
2023-03-12T01:54:16.166Z,4.07
2023-03-12T01:55:20.405Z,5.78
2023-03-12T01:56:35.491Z,4.40
2023-03-12T01:57:51.374Z,4.78
2023-03-12T01:59:00.830Z,5.47
2023-03-12T02:00:22.460Z,3.60
2023-03-12T02:01:29.634Z,4.18
2023-03-12T02:02:44.617Z,4.22
2023-03-12T02:04:04.331Z,4.82
2023-03-12T02:05:23.305Z,4.25
2023-03-12T02:06:51.908Z,3.92
2023-03-12T02:07:58.872Z,3.63
2023-03-12T02:09:11.406Z,3.13
2023-03-12T02:10:20.724Z,3.40
2023-03-12T02:11:28.786Z,5.57
2023-03-12T02:12:36.634Z,4.50
2023-03-12T02:13:44.907Z,4.13
2023-03-12T02:14:51.851Z,4.05
2023-03-12T02:15:58.345Z,3.60
2023-03-12T02:17:02.475Z,3.95
2023-03-12T02:18:12.135Z,4.13
2023-03-12T02:19:42.317Z,4.68
2023-03-12T02:21:33.878Z,3.65
2023-03-12T02:22:42.310Z,3.80
2023-03-12T02:24:21.056Z,3.97
2023-03-12T02:25:34.862Z,4.22
2023-03-12T02:26:41.448Z,5.55
2023-03-12T02:27:48.387Z,4.22
2023-03-12T02:28:54.598Z,4.25
2023-03-12T02:30:06.502Z,4.28
2023-03-12T02:31:20.628Z,4.68
2023-03-12T02:32:37.317Z,4.18
2023-03-12T02:33:46.281Z,3.72
2023-03-12T02:34:51.063Z,3.67
2023-03-12T02:35:55.801Z,4.28
2023-03-12T02:37:06.575Z,3.70
2023-03-12T02:38:49.972Z,4.28
2023-03-12T02:40:20.021Z,4.90
2023-03-12T02:41:34.995Z,4.90
2023-03-12T02:42:39.302Z,4.50
2023-03-12T02:43:53.027Z,4.13
2023-03-12T02:45:02.692Z,5.05
2023-03-12T02:46:16.638Z,4.68
2023-03-12T02:47:23.818Z,4.82
2023-03-12T02:48:28.385Z,4.07
2023-03-12T02:49:36.682Z,5.70
2023-03-12T02:50:40.942Z,5.25
2023-03-12T02:51:49.552Z,4.93
2023-03-12T02:52:54.521Z,4.35
2023-03-12T02:53:59.071Z,4.75
2023-03-12T02:55:03.705Z,4.43
2023-03-12T02:56:07.873Z,4.38
2023-03-12T02:57:14.569Z,4.38
2023-03-12T02:58:27.113Z,3.70
2023-03-12T02:59:31.253Z,4.13
2023-03-12T03:02:18.581Z,4.13
2023-03-12T03:03:22.530Z,4.13
2023-03-12T03:04:28.146Z,3.43
2023-03-12T03:05:34.540Z,3.70
2023-03-12T03:06:48.435Z,4.22
2023-03-12T03:07:56.944Z,4.18
2023-03-12T03:09:07.882Z,4.85
2023-03-12T03:10:16.059Z,3.80
2023-03-12T03:11:25.037Z,3.53
2023-03-12T03:12:33.048Z,4.28
2023-03-12T03:13:41.452Z,4.78
2023-03-12T03:14:49.450Z,3.47
2023-03-12T03:15:59.190Z,4.50
2023-03-12T03:17:07.693Z,4.15
2023-03-12T03:18:21.971Z,3.05
2023-03-12T03:19:27.363Z,4.55
2023-03-12T03:20:36.066Z,3.50
2023-03-12T03:21:49.735Z,4.45
2023-03-12T03:23:20.749Z,4.90
2023-03-12T03:24:32.936Z,3.38
2023-03-12T03:25:41.089Z,3.42
2023-03-12T03:26:54.859Z,4.10
2023-03-12T03:28:04.285Z,4.13
2023-03-12T03:31:02.947Z,3.50
2023-03-12T03:32:11.662Z,4.10
2023-03-12T03:33:20.492Z,3.70
2023-03-12T03:34:54.010Z,3.97
2023-03-12T03:36:37.276Z,4.25
2023-03-12T03:37:40.820Z,4.07
2023-03-12T03:38:49.405Z,3.95
2023-03-12T03:40:10.602Z,3.75
2023-03-12T03:41:20.959Z,3.85
2023-03-12T03:42:28.272Z,3.88
2023-03-12T03:43:32.416Z,3.63
2023-03-12T03:44:35.990Z,4.05
2023-03-12T03:45:39.645Z,2.92
2023-03-12T03:46:43.985Z,3.40
2023-03-12T03:47:47.827Z,3.53
2023-03-12T03:48:52.210Z,3.65
2023-03-12T03:49:55.969Z,4.03
2023-03-12T03:51:06.301Z,3.50
2023-03-12T03:52:18.946Z,3.40
2023-03-12T03:53:26.310Z,3.78
2023-03-12T03:54:34.820Z,2.97
2023-03-12T03:55:44.641Z,2.75
2023-03-12T03:56:51.771Z,3.78
2023-03-12T03:57:55.442Z,4.15
2023-03-12T03:59:08.735Z,3.10
2023-03-12T04:00:16.316Z,3.30
2023-03-12T04:01:21.110Z,3.95
2023-03-12T04:02:28.529Z,3.58
2023-03-12T04:03:34.390Z,3.38
2023-03-12T04:04:38.476Z,3.08
2023-03-12T04:05:49.187Z,3.55
2023-03-12T04:06:56.573Z,3.35
2023-03-12T04:08:03.979Z,3.20
2023-03-12T04:09:07.843Z,4.50
2023-03-12T04:10:12.963Z,2.97
2023-03-12T04:11:21.010Z,3.90
2023-03-12T04:12:28.123Z,3.03
2023-03-12T04:13:37.872Z,3.83
2023-03-12T04:14:44.033Z,3.92
2023-03-12T04:15:56.923Z,3.90
2023-03-12T04:17:02.128Z,4.25
2023-03-12T04:18:08.725Z,3.58
2023-03-12T04:19:12.742Z,3.78
2023-03-12T04:20:17.326Z,5.13
2023-03-12T04:21:21.859Z,3.75
2023-03-12T04:22:26.258Z,4.03
2023-03-12T04:23:30.053Z,4.18
2023-03-12T04:24:33.638Z,4.80
2023-03-12T04:25:40.454Z,4.25
2023-03-12T04:26:47.926Z,3.20
2023-03-12T04:27:52.033Z,4.13
2023-03-12T04:29:01.207Z,3.58
2023-03-12T04:30:10.015Z,3.30
2023-03-12T04:31:18.107Z,3.17
2023-03-12T04:32:29.847Z,4.22
2023-03-12T04:33:38.066Z,4.18
2023-03-12T04:34:46.322Z,3.38
2023-03-12T04:35:53.946Z,3.47
2023-03-12T04:36:58.063Z,3.45
2023-03-12T04:38:05.320Z,4.05
2023-03-12T04:39:09.716Z,3.33
2023-03-12T04:40:19.320Z,3.17
2023-03-12T04:41:26.274Z,3.30
2023-03-12T04:42:32.575Z,3.65
2023-03-12T04:43:37.112Z,3.17
2023-03-12T04:44:42.014Z,3.90
2023-03-12T04:45:47.605Z,3.58
2023-03-12T04:46:52.080Z,3.20
2023-03-12T04:47:56.071Z,3.13
2023-03-12T04:49:02.737Z,3.13
2023-03-12T04:50:15.599Z,3.03
2023-03-12T04:51:19.473Z,2.95
2023-03-12T04:52:27.064Z,3.65
2023-03-12T04:53:33.778Z,3.45
2023-03-12T04:54:40.539Z,3.40
2023-03-12T04:55:44.314Z,3.50
2023-03-12T04:56:49.712Z,3.15
2023-03-12T04:58:02.340Z,3.05
2023-03-12T04:59:09.292Z,3.90
2023-03-12T05:00:14.074Z,3.00
2023-03-12T05:01:29.094Z,3.10
2023-03-12T05:02:33.712Z,3.15
2023-03-12T05:03:41.276Z,3.92
2023-03-12T05:04:45.386Z,2.90
2023-03-12T05:05:48.941Z,2.85
2023-03-12T05:06:52.553Z,3.30
2023-03-12T05:07:56.479Z,3.33
2023-03-12T05:09:01.142Z,3.28
2023-03-12T05:10:09.714Z,3.30
2023-03-12T05:11:15.732Z,3.92
2023-03-12T05:12:25.204Z,2.97
2023-03-12T05:13:32.194Z,3.38
2023-03-12T05:14:37.175Z,2.70
2023-03-12T05:15:45.178Z,3.90
2023-03-12T05:16:52.130Z,3.10
2023-03-12T05:17:57.103Z,3.22
2023-03-12T05:19:04.989Z,3.50
2023-03-12T05:20:09.844Z,2.58
2023-03-12T05:21:20.371Z,2.90
2023-03-12T05:22:28.934Z,3.78
2023-03-12T05:23:36.609Z,4.35
2023-03-12T05:24:44.260Z,3.85
2023-03-12T05:25:49.287Z,3.67
2023-03-12T05:26:53.272Z,3.55
2023-03-12T05:28:06.745Z,3.05
2023-03-12T05:29:14.091Z,4.15
2023-03-12T05:30:18.245Z,3.38
2023-03-12T05:31:23.559Z,3.97
2023-03-12T05:32:28.866Z,3.22
2023-03-12T05:33:32.682Z,3.28
2023-03-12T05:34:40.894Z,3.13
2023-03-12T05:35:48.689Z,3.40
2023-03-12T05:36:53.865Z,3.72
2023-03-12T05:37:58.626Z,3.10
2023-03-12T05:39:03.128Z,3.17
2023-03-12T05:40:12.235Z,3.42
2023-03-12T05:41:31.430Z,2.92
2023-03-12T05:42:36.072Z,2.50
2023-03-12T05:43:43.651Z,3.67
2023-03-12T05:44:51.587Z,3.45
2023-03-12T05:46:01.144Z,3.25
2023-03-12T05:47:05.802Z,3.28
2023-03-12T05:48:09.944Z,3.35
2023-03-12T05:49:13.705Z,3.00
2023-03-12T05:50:21.509Z,3.97
2023-03-12T05:51:28.725Z,3.42
2023-03-12T05:52:32.754Z,3.83
2023-03-12T05:53:43.903Z,3.03
2023-03-12T05:54:53.298Z,3.08
2023-03-12T05:56:09.759Z,3.45
2023-03-12T05:57:14.001Z,3.33
2023-03-12T05:58:20.351Z,3.28
2023-03-12T05:59:27.541Z,3.47
2023-03-12T06:00:34.292Z,4.32
2023-03-12T06:01:45.815Z,3.03
2023-03-12T06:02:51.251Z,3.45
2023-03-12T06:03:55.547Z,3.55
2023-03-12T06:05:01.096Z,2.78
2023-03-12T06:06:08.080Z,3.20
2023-03-12T06:07:13.925Z,3.67
2023-03-12T06:08:17.645Z,3.45
2023-03-12T06:09:23.571Z,3.30
2023-03-12T06:10:29.487Z,4.10
2023-03-12T06:11:36.591Z,3.95
2023-03-12T06:12:46.730Z,3.88
2023-03-12T06:13:54.531Z,3.33
2023-03-12T06:14:58.876Z,3.40
2023-03-12T06:16:12.595Z,3.30
2023-03-12T06:17:25.960Z,3.25
2023-03-12T06:18:32.076Z,3.28
2023-03-12T06:19:35.990Z,3.35
2023-03-12T06:20:39.720Z,4.30
2023-03-12T06:21:44.390Z,3.95
2023-03-12T06:22:48.963Z,3.60
2023-03-12T06:23:53.990Z,3.45
2023-03-12T06:25:12.040Z,2.75
2023-03-12T06:26:20.952Z,3.03
2023-03-12T06:27:25.341Z,2.88
2023-03-12T06:28:30.799Z,3.45
2023-03-12T06:29:35.936Z,3.22
2023-03-12T06:30:44.180Z,3.50
2023-03-12T06:31:52.479Z,2.92
2023-03-12T06:33:00.741Z,3.47
2023-03-12T06:34:05.483Z,3.38
2023-03-12T06:35:13.674Z,3.47
2023-03-12T06:36:19.948Z,2.75
2023-03-12T06:37:32.300Z,2.88
2023-03-12T06:38:36.876Z,3.70
2023-03-12T06:39:40.958Z,3.15
2023-03-12T06:40:57.924Z,3.33
2023-03-12T06:42:03.691Z,4.07
2023-03-12T06:43:12.683Z,3.78
2023-03-12T06:44:18.935Z,3.25
2023-03-12T06:45:22.656Z,4.00
2023-03-12T06:46:26.562Z,3.17
2023-03-12T06:47:33.948Z,2.60
2023-03-12T06:48:42.114Z,3.13
2023-03-12T06:49:53.030Z,3.08
2023-03-12T06:50:56.933Z,3.83
2023-03-12T06:52:04.237Z,3.42
2023-03-12T06:53:08.912Z,3.22
2023-03-12T06:54:12.586Z,3.10
2023-03-12T06:55:25.463Z,2.75
2023-03-12T06:56:31.283Z,2.83
2023-03-12T06:57:39.005Z,2.97
2023-03-12T06:58:42.767Z,3.33
2023-03-12T06:59:54.951Z,3.45
2023-03-12T07:00:59.708Z,3.40
2023-03-12T07:02:13.195Z,4.20
2023-03-12T07:03:17.008Z,2.90
2023-03-12T07:04:20.966Z,2.30
2023-03-12T07:05:26.264Z,2.50
2023-03-12T07:06:34.474Z,3.08
2023-03-12T07:07:45.050Z,3.15
2023-03-12T07:08:49.248Z,2.88
2023-03-12T07:09:53.216Z,2.70
2023-03-12T07:11:01.761Z,2.88
2023-03-12T07:12:10.053Z,2.47
2023-03-12T07:13:13.951Z,4.25
2023-03-12T07:14:17.598Z,2.90
2023-03-12T07:15:32.266Z,3.53
2023-03-12T07:16:36.891Z,3.35
2023-03-12T07:17:41.902Z,3.42
2023-03-12T07:18:46.455Z,3.35
2023-03-12T07:19:52.579Z,3.40
2023-03-12T07:20:58.424Z,3.35
2023-03-12T07:22:02.716Z,2.83
2023-03-12T07:23:24.436Z,2.70
2023-03-12T07:24:29.335Z,3.22
2023-03-12T07:25:37.833Z,2.78
2023-03-12T07:26:45.062Z,2.65
2023-03-12T07:27:49.286Z,3.10
2023-03-12T07:28:53.650Z,2.83
2023-03-12T07:29:58.010Z,3.53
2023-03-12T07:31:11.011Z,2.90
2023-03-12T07:32:15.294Z,2.40
2023-03-12T07:33:27.973Z,2.45
2023-03-12T07:34:32.659Z,2.63
2023-03-12T07:35:40.903Z,2.58
2023-03-12T07:36:50.560Z,2.15
2023-03-12T07:37:55.868Z,2.13
2023-03-12T07:38:59.764Z,2.53
2023-03-12T07:40:08.287Z,2.60
2023-03-12T07:41:17.145Z,2.17
2023-03-12T07:42:23.609Z,2.15
2023-03-12T07:43:31.726Z,1.75
2023-03-12T07:44:37.466Z,2.47
2023-03-12T07:45:46.180Z,1.38
2023-03-12T07:46:50.939Z,1.70
2023-03-12T07:47:58.355Z,1.30
2023-03-12T07:49:02.499Z,2.40
2023-03-12T07:50:09.202Z,1.65
2023-03-12T07:51:16.319Z,1.27
2023-03-12T07:52:20.820Z,1.63
2023-03-12T07:53:25.859Z,1.23
2023-03-12T07:54:32.230Z,1.45
2023-03-12T07:55:39.685Z,1.58
2023-03-12T07:56:47.152Z,1.40
2023-03-12T07:57:54.176Z,1.52
2023-03-12T07:59:01.559Z,1.70
2023-03-12T08:00:10.586Z,1.63
2023-03-12T08:01:17.532Z,1.40
2023-03-12T08:02:22.097Z,2.28
2023-03-12T08:03:31.073Z,1.70
2023-03-12T08:04:40.679Z,1.55
2023-03-12T08:06:02.613Z,1.55
2023-03-12T08:07:09.144Z,1.65
2023-03-12T08:08:13.411Z,1.45
2023-03-12T08:09:17.309Z,1.65
2023-03-12T08:10:24.005Z,1.83
2023-03-12T08:11:28.582Z,1.65
2023-03-12T08:12:36.491Z,1.38
2023-03-12T08:13:41.182Z,1.77
2023-03-12T08:14:46.811Z,1.27
2023-03-12T08:15:55.697Z,2.33
2023-03-12T08:17:00.145Z,1.65
2023-03-12T08:18:04.169Z,1.17
2023-03-12T08:19:15.201Z,1.60
2023-03-12T08:20:22.441Z,1.25
2023-03-12T08:21:32.337Z,1.50
2023-03-12T08:22:39.184Z,1.40
2023-03-12T08:23:43.101Z,1.75
2023-03-12T08:24:50.000Z,1.30
2023-03-12T08:25:54.885Z,1.30
2023-03-12T08:27:02.258Z,1.88
2023-03-12T08:28:11.375Z,1.05
2023-03-12T08:29:18.459Z,1.48
2023-03-12T08:30:30.358Z,1.35
2023-03-12T08:31:35.449Z,1.45
2023-03-12T08:32:47.359Z,1.17
2023-03-12T08:33:50.953Z,0.93
2023-03-12T08:34:55.386Z,1.00
2023-03-12T08:36:02.831Z,1.65
2023-03-12T08:37:12.882Z,1.33
2023-03-12T08:38:16.469Z,1.13
2023-03-12T08:39:21.204Z,1.20
2023-03-12T08:40:26.446Z,1.25
2023-03-12T08:41:33.839Z,1.15
2023-03-12T08:42:45.430Z,1.20
2023-03-12T08:43:52.502Z,1.30
2023-03-12T08:44:57.414Z,1.55
2023-03-12T08:46:05.882Z,1.17
2023-03-12T08:47:11.236Z,1.20
2023-03-12T08:48:15.007Z,1.10
2023-03-12T08:49:26.608Z,1.25
2023-03-12T08:50:38.281Z,1.42
2023-03-12T08:51:44.493Z,1.20
2023-03-12T08:52:49.824Z,0.82
2023-03-12T08:53:54.633Z,1.35
2023-03-12T08:54:58.328Z,0.90
2023-03-12T08:56:05.207Z,0.95
2023-03-12T08:57:12.214Z,0.80
2023-03-12T08:58:16.654Z,0.80
2023-03-12T08:59:24.871Z,1.10
2023-03-12T09:00:29.417Z,1.00
2023-03-12T09:01:34.697Z,0.98
2023-03-12T09:02:39.693Z,0.80
2023-03-12T09:03:43.770Z,0.93
2023-03-12T09:04:53.672Z,0.80
2023-03-12T09:06:16.194Z,0.65
2023-03-12T09:07:20.015Z,1.25
2023-03-12T09:08:23.872Z,0.90
2023-03-12T09:09:40.139Z,1.35
2023-03-12T09:10:53.523Z,1.13
2023-03-12T09:12:10.651Z,1.00
2023-03-12T09:13:17.882Z,1.30
2023-03-12T09:15:01.619Z,1.40
2023-03-12T09:15:53.281Z,1.45
2023-03-12T09:17:02.287Z,1.10
2023-03-12T09:18:16.334Z,1.38
2023-03-12T09:19:33.244Z,1.30
2023-03-12T09:20:37.945Z,1.00
2023-03-12T09:21:42.065Z,1.00
2023-03-12T09:22:46.899Z,1.42
2023-03-12T09:23:50.809Z,1.20
2023-03-12T09:25:04.447Z,1.20
2023-03-12T09:26:14.020Z,1.23
2023-03-12T09:27:18.430Z,1.02
2023-03-12T09:28:25.616Z,1.73
2023-03-12T09:29:29.311Z,1.88
2023-03-12T09:30:35.587Z,1.30
2023-03-12T09:31:41.510Z,1.08
2023-03-12T09:32:50.368Z,1.10
2023-03-12T09:34:01.497Z,0.98
2023-03-12T09:35:08.207Z,1.10
2023-03-12T09:36:12.812Z,1.40
2023-03-12T09:37:16.696Z,0.98
2023-03-12T09:38:35.665Z,1.27
2023-03-12T09:39:42.883Z,2.25
2023-03-12T09:40:47.958Z,1.45
2023-03-12T09:41:52.218Z,1.48
2023-03-12T09:43:10.893Z,2.20
2023-03-12T09:44:29.544Z,1.13
2023-03-12T09:45:42.322Z,1.52
2023-03-12T09:46:58.559Z,1.77
2023-03-12T09:48:22.851Z,1.30
2023-03-12T09:49:46.969Z,1.73
2023-03-12T09:50:52.136Z,1.33
2023-03-12T09:52:04.448Z,1.70
2023-03-12T09:53:25.903Z,1.63
2023-03-12T09:55:27.942Z,1.90
2023-03-12T09:56:36.309Z,1.95
2023-03-12T09:57:41.237Z,1.45
2023-03-12T09:58:55.085Z,1.60
2023-03-12T10:00:04.712Z,2.03
2023-03-12T10:01:40.261Z,1.70
2023-03-12T10:03:10.240Z,2.50
2023-03-12T10:04:58.655Z,2.10
2023-03-12T10:06:19.063Z,1.73
2023-03-12T10:07:39.133Z,1.83
2023-03-12T10:09:20.002Z,2.10
2023-03-12T10:10:49.592Z,2.72
2023-03-12T10:12:28.782Z,2.70
2023-03-12T10:13:43.962Z,3.03
2023-03-12T10:15:11.951Z,2.60
2023-03-12T10:16:40.558Z,2.00
2023-03-12T10:18:13.721Z,2.10
2023-03-12T10:19:56.917Z,2.20
2023-03-12T10:21:46.784Z,2.33
2023-03-12T10:23:35.124Z,2.45
2023-03-12T10:25:15.950Z,2.17
2023-03-12T10:26:45.753Z,2.22
2023-03-12T10:27:50.539Z,2.22
2023-03-12T10:29:19.206Z,2.05
2023-03-12T10:30:30.644Z,2.65
2023-03-12T10:32:04.972Z,2.15
2023-03-12T10:33:27.734Z,2.33
2023-03-12T10:35:13.397Z,2.13
2023-03-12T10:36:42.477Z,2.08
2023-03-12T10:38:01.530Z,2.10
2023-03-12T10:39:21.205Z,2.67
2023-03-12T10:40:31.364Z,2.47
2023-03-12T10:41:39.798Z,2.08
2023-03-12T10:42:44.616Z,2.55
2023-03-12T10:43:52.084Z,2.22
2023-03-12T10:45:28.473Z,2.58
2023-03-12T10:46:59.993Z,2.30
2023-03-12T10:48:11.988Z,2.20
2023-03-12T10:49:42.133Z,2.15
2023-03-12T10:51:11.761Z,3.03
2023-03-12T10:52:22.176Z,2.70
2023-03-12T10:53:37.396Z,2.03
2023-03-12T10:54:45.387Z,2.38
2023-03-12T10:56:13.831Z,2.10
2023-03-12T10:57:21.931Z,2.05
2023-03-12T10:58:33.051Z,1.95
2023-03-12T10:59:51.587Z,2.42
2023-03-12T11:00:59.967Z,2.08
2023-03-12T11:02:40.652Z,2.67
2023-03-12T11:03:46.848Z,1.67
2023-03-12T11:04:54.576Z,2.90
2023-03-12T11:06:08.436Z,2.60
2023-03-12T11:07:20.348Z,1.90
2023-03-12T11:08:38.682Z,2.17
2023-03-12T11:09:49.350Z,2.22
2023-03-12T11:10:56.211Z,2.58
2023-03-12T11:12:33.909Z,2.83
2023-03-12T11:13:42.241Z,2.35
2023-03-12T11:14:55.132Z,1.95
2023-03-12T11:16:03.510Z,2.55
2023-03-12T11:17:24.356Z,2.03
2023-03-12T11:18:35.636Z,2.22
2023-03-12T11:19:40.566Z,2.17
2023-03-12T11:20:45.266Z,2.13
2023-03-12T11:22:02.124Z,2.05
2023-03-12T11:23:20.739Z,2.28
2023-03-12T11:24:25.472Z,2.17
2023-03-12T11:25:32.736Z,2.45
2023-03-12T11:26:53.512Z,1.95
2023-03-12T11:28:19.687Z,2.42
2023-03-12T11:29:52.960Z,2.00
2023-03-12T11:32:32.579Z,2.22
2023-03-12T11:33:44.926Z,2.00
2023-03-12T11:34:53.364Z,2.20
2023-03-12T11:38:41.841Z,2.78
2023-03-12T11:40:43.873Z,2.55
2023-03-12T11:42:55.809Z,1.80
2023-03-12T11:44:48.728Z,2.05
2023-03-12T11:46:49.833Z,2.30
2023-03-12T11:48:11.488Z,2.40
2023-03-12T11:49:59.209Z,2.20
2023-03-12T11:52:17.117Z,2.05
2023-03-12T11:54:00.880Z,2.15
2023-03-12T11:55:53.022Z,2.42
2023-03-12T11:57:56.619Z,2.10
2023-03-12T12:01:51.692Z,2.25
2023-03-12T12:03:37.716Z,2.58
2023-03-12T12:05:17.102Z,2.55
2023-03-12T12:08:29.371Z,2.00
2023-03-12T12:10:29.231Z,2.03
2023-03-12T12:12:38.826Z,2.08
2023-03-12T12:14:14.356Z,2.58
2023-03-12T12:16:22.880Z,1.88
2023-03-12T12:19:16.231Z,1.90
2023-03-12T12:20:45.380Z,2.17
2023-03-12T12:22:17.119Z,2.42
2023-03-12T12:23:58.858Z,2.33
2023-03-12T12:26:11.195Z,2.78
2023-03-12T12:27:56.084Z,2.47
2023-03-12T12:29:30.050Z,2.35
2023-03-12T12:31:30.896Z,3.45
2023-03-12T12:33:23.093Z,2.75
2023-03-12T12:35:04.915Z,2.65
2023-03-12T12:36:15.072Z,2.65
2023-03-12T12:37:39.694Z,1.90
2023-03-12T12:39:01.561Z,2.88
2023-03-12T12:40:23.985Z,2.47
2023-03-12T12:41:42.095Z,2.22
2023-03-12T12:43:33.684Z,2.95
2023-03-12T12:44:55.323Z,2.30
2023-03-12T12:46:26.480Z,2.85
2023-03-12T12:47:49.145Z,2.47
2023-03-12T12:49:22.613Z,2.75
2023-03-12T12:50:34.259Z,2.10
2023-03-12T12:51:44.549Z,1.88
2023-03-12T12:53:21.432Z,2.60
2023-03-12T12:54:57.687Z,2.22
2023-03-12T12:56:32.380Z,2.45
2023-03-12T12:57:42.927Z,2.92
2023-03-12T12:59:09.135Z,2.15
2023-03-12T13:00:48.116Z,3.08
2023-03-12T13:01:59.440Z,2.60
2023-03-12T13:03:05.606Z,2.97
2023-03-12T13:04:38.681Z,2.30
2023-03-12T13:06:08.117Z,2.85
2023-03-12T13:07:20.651Z,2.53
2023-03-12T13:08:43.949Z,1.92
2023-03-12T13:10:34.176Z,2.67
2023-03-12T13:11:50.047Z,2.47
2023-03-12T13:12:57.114Z,2.85
2023-03-12T13:14:03.680Z,1.95
2023-03-12T13:15:31.487Z,2.15
2023-03-12T13:16:45.829Z,2.75
2023-03-12T13:17:52.332Z,2.13
2023-03-12T13:19:17.381Z,2.72
2023-03-12T13:20:29.570Z,2.45
2023-03-12T13:22:18.018Z,2.60
2023-03-12T13:23:55.568Z,2.83
2023-03-12T13:25:18.334Z,3.05
2023-03-12T13:26:53.706Z,2.22
2023-03-12T13:28:30.490Z,2.47
2023-03-12T13:29:38.774Z,2.05
2023-03-12T13:30:54.150Z,2.40
2023-03-12T13:32:00.719Z,2.33
2023-03-12T13:33:36.105Z,2.90
2023-03-12T13:34:53.461Z,2.22
2023-03-12T13:36:23.582Z,1.80
2023-03-12T13:37:54.059Z,2.58
2023-03-12T13:39:11.287Z,2.10
2023-03-12T13:40:30.400Z,2.30
2023-03-12T13:42:02.216Z,2.10
2023-03-12T13:43:30.949Z,2.60
2023-03-12T13:44:39.697Z,2.25
2023-03-12T13:46:22.701Z,2.53
2023-03-12T13:47:46.586Z,2.10
2023-03-12T13:49:10.780Z,2.22
2023-03-12T13:50:22.614Z,2.00
2023-03-12T13:51:27.840Z,2.30
2023-03-12T13:52:58.040Z,2.08
2023-03-12T13:54:20.386Z,2.10
2023-03-12T13:55:38.070Z,2.25
2023-03-12T13:56:58.837Z,2.20
2023-03-12T13:58:10.032Z,2.38
2023-03-12T13:59:19.935Z,2.28
2023-03-12T14:00:44.027Z,1.98
2023-03-12T14:01:58.147Z,2.80
2023-03-12T14:05:13.928Z,2.40
2023-03-12T14:06:31.016Z,2.08
2023-03-12T14:08:17.871Z,2.55
2023-03-12T14:09:40.862Z,2.30
2023-03-12T14:11:20.806Z,2.58
2023-03-12T14:12:58.643Z,2.03
2023-03-12T14:14:32.055Z,2.30
2023-03-12T14:15:59.763Z,2.55
2023-03-12T14:17:05.872Z,1.83
2023-03-12T14:18:21.470Z,1.75
2023-03-12T14:19:35.246Z,2.63
2023-03-12T14:20:40.236Z,2.88
2023-03-12T14:21:47.898Z,2.10
2023-03-12T14:23:01.033Z,2.05
2023-03-12T14:24:08.878Z,2.00
2023-03-12T14:25:24.028Z,1.95
2023-03-12T14:26:39.088Z,1.60
2023-03-12T14:27:48.109Z,1.70
2023-03-12T14:29:30.793Z,2.58
2023-03-12T14:30:50.368Z,1.70
2023-03-12T14:32:00.716Z,2.05
2023-03-12T14:33:06.458Z,1.80
2023-03-12T14:34:22.558Z,2.42
2023-03-12T14:35:37.415Z,2.00
2023-03-12T14:37:24.454Z,2.00
2023-03-12T14:38:36.617Z,2.10
2023-03-12T14:39:54.361Z,1.63
2023-03-12T14:41:36.014Z,2.33
2023-03-12T14:42:42.025Z,1.92
2023-03-12T14:43:47.174Z,1.85
2023-03-12T14:45:02.358Z,2.25
2023-03-12T14:46:17.894Z,2.58
2023-03-12T14:47:21.597Z,2.40
2023-03-12T14:48:32.033Z,1.52
2023-03-12T14:49:45.990Z,1.58
2023-03-12T14:50:50.279Z,1.98
2023-03-12T14:51:55.011Z,2.38
2023-03-12T14:53:18.555Z,1.85
2023-03-12T14:54:27.099Z,1.90
2023-03-12T14:55:30.915Z,2.15
2023-03-12T14:56:36.276Z,2.03
2023-03-12T14:57:41.188Z,2.63
2023-03-12T14:58:49.956Z,1.85
2023-03-12T15:00:00.281Z,1.92
2023-03-12T15:01:39.757Z,2.10
2023-03-12T15:02:44.173Z,2.13
2023-03-12T15:04:05.207Z,2.38
2023-03-12T15:05:18.506Z,1.90
2023-03-12T15:06:37.005Z,1.83
2023-03-12T15:07:41.133Z,1.70
2023-03-12T15:08:45.530Z,2.75
2023-03-12T15:09:53.000Z,2.45
2023-03-12T15:10:59.055Z,1.95
2023-03-12T15:12:08.751Z,1.83
2023-03-12T15:13:14.092Z,3.10
2023-03-12T15:14:17.976Z,1.70
2023-03-12T15:15:30.481Z,1.83
2023-03-12T15:16:35.870Z,2.25
2023-03-12T15:17:40.054Z,1.55
2023-03-12T15:18:44.230Z,2.33
2023-03-12T15:19:50.363Z,1.92
2023-03-12T15:20:57.409Z,1.90
2023-03-12T15:22:02.033Z,1.40
2023-03-12T15:23:10.137Z,1.80
2023-03-12T15:24:14.922Z,1.58
2023-03-12T15:25:28.625Z,1.70
2023-03-12T15:26:38.399Z,1.80
2023-03-12T15:27:42.148Z,1.85
2023-03-12T15:29:29.457Z,2.20
2023-03-12T15:30:35.757Z,1.90
2023-03-12T15:31:48.863Z,1.40
2023-03-12T15:33:16.474Z,1.73
2023-03-12T15:34:37.191Z,1.83
2023-03-12T15:36:26.216Z,1.48
2023-03-12T15:37:34.978Z,1.70
2023-03-12T15:38:48.682Z,2.03
2023-03-12T15:39:54.025Z,1.77
2023-03-12T15:41:06.369Z,1.95
2023-03-12T15:42:19.956Z,2.17
2023-03-12T15:43:26.528Z,2.25
2023-03-12T15:44:46.314Z,1.88
2023-03-12T15:46:03.161Z,1.80
2023-03-12T15:47:13.766Z,2.58
2023-03-12T15:48:35.066Z,1.83
2023-03-12T15:49:40.156Z,2.05
2023-03-12T15:50:45.674Z,2.08
2023-03-12T15:52:04.565Z,2.22
2023-03-12T15:53:19.857Z,2.08
2023-03-12T15:54:29.439Z,2.20
2023-03-12T15:55:36.046Z,2.05
2023-03-12T15:56:40.146Z,2.22
2023-03-12T15:57:55.103Z,1.52
2023-03-12T15:59:17.406Z,1.35
2023-03-12T16:00:46.166Z,1.88
2023-03-12T16:01:57.884Z,1.85
2023-03-12T16:03:08.297Z,1.55
2023-03-12T16:04:12.076Z,1.45
2023-03-12T16:05:15.952Z,1.77
2023-03-12T16:06:25.737Z,1.60
2023-03-12T16:07:29.304Z,1.73
2023-03-12T16:08:46.219Z,2.03
2023-03-12T16:09:49.868Z,1.90
2023-03-12T16:10:55.581Z,1.70
2023-03-12T16:11:59.754Z,1.80
2023-03-12T16:13:04.934Z,1.98
2023-03-12T16:14:23.176Z,1.48
2023-03-12T16:15:33.875Z,1.85
2023-03-12T16:16:38.060Z,1.73
2023-03-12T16:17:42.685Z,1.70
2023-03-12T16:18:46.238Z,1.92
2023-03-12T16:19:50.032Z,1.98
2023-03-12T16:20:54.647Z,2.00
2023-03-12T16:21:58.362Z,2.17
2023-03-12T16:23:02.041Z,1.80
2023-03-12T16:24:05.949Z,1.92
2023-03-12T16:25:12.089Z,2.45
2023-03-12T16:26:16.044Z,2.08
2023-03-12T16:27:32.052Z,2.45
2023-03-12T16:28:54.515Z,2.08
2023-03-12T16:29:58.403Z,2.33
2023-03-12T16:31:03.268Z,1.77
2023-03-12T16:32:15.031Z,2.13
2023-03-12T16:33:23.616Z,2.03
2023-03-12T16:34:30.813Z,2.00
2023-03-12T16:35:34.929Z,2.10